Time;durP1;ratioP1;P1;durP2;ratioP2;P2;SDS_P1;SDS_P2;PMS_P1;PMS_P2;Temp;Humidity;BMP_temperature;BMP_pressure;BME280_temperature;BME280_humidity;BME280_pressure;Samples;Min_cycle;Max_cycle;Signal;HPM_P1;HPM_P2
2021/06/20 00:01:03;;;;;;;;;;;;;;;;;;10116370;28;19925;-63
2021/06/20 00:06:01;;;;;;;;;;;;;;;;;;10116243;28;19996;-63
2021/06/20 00:10:59;;;;;;;;;;;;;;;;;;10116340;28;19922;-62
2021/06/20 00:15:57;;;;;;;;;;;;;;;;;;10116079;28;19922;-62
2021/06/20 00:20:55;;;;;;;;;;;;;;;;;;10114969;28;19929;-63
2021/06/20 00:25:53;;;;;;;;;;;;;;;;;;10116726;28;19968;-62
2021/06/20 00:30:52;;;;;;;;;;;;;;;;;;10116592;28;20411;-62
2021/06/20 00:35:50;;;;;;;;;;;;;;;;;;10116609;28;19922;-63
2021/06/20 00:40:48;;;;;;;;;;;;;;;;;;10116750;28;19929;-63
2021/06/20 00:45:46;;;;;;;;;;;;;;;;;;10116445;28;20379;-62
2021/06/20 00:50:44;;;;;;;;;;;;;;;;;;10115710;28;19926;-63
2021/06/20 00:55:44;;;;;;;;;;;;;;;;;;10116000;28;19922;-62
2021/06/20 01:00:42;;;;;;;;;;;;;;;;;;10116127;28;19926;-63
2021/06/20 01:05:40;;;;;;;;;;;;;;;;;;10116112;28;19999;-62
2021/06/20 01:10:38;;;;;;;;;;;;;;;;;;10116067;28;20441;-63
2021/06/20 01:15:36;;;;;;;;;;;;;;;;;;10115311;28;19922;-63
2021/06/20 01:20:34;;;;;;;;;;;;;;;;;;10114901;28;20097;-63
2021/06/20 01:25:32;;;;;;;;;;;;;;;;;;10115649;28;20043;-63
2021/06/20 01:30:30;;;;;;;;;;;;;;;;;;10114885;28;19966;-63
2021/06/20 01:35:30;;;;;;;;;;;;;;;;;;10118475;28;20390;-63
2021/06/20 01:40:28;;;;;;;;;;;;;;;;;;10122361;28;19929;-63
2021/06/20 01:45:26;;;;;;;;;;;;;;;;;;10122248;28;20008;-63
2021/06/20 01:50:24;;;;;;;;;;;;;;;;;;10121310;28;19949;-63
2021/06/20 01:55:22;;;;;;;;;;;;;;;;;;10121952;28;19949;-63
2021/06/20 02:00:21;;;;;;;;;;;;;;;;;;10121416;28;19984;-63
2021/06/20 02:05:18;;;;;;;;;;;;;;;;;;10121418;28;19965;-63
2021/06/20 02:10:17;;;;;;;;;;;;;;;;;;10120902;28;19922;-63
2021/06/20 02:15:16;;;;;;;;;;;;;;;;;;10120739;28;19969;-63
2021/06/20 02:20:15;;;;;;;;;;;;;;;;;;10119969;28;20327;-63
2021/06/20 02:25:13;;;;;;;;;;;;;;;;;;10119843;28;20369;-63
2021/06/20 02:30:11;;;;;;;;;;;;;;;;;;10119487;28;20380;-63
2021/06/20 02:35:09;;;;;;;;;;;;;;;;;;10119805;28;19922;-63
2021/06/20 02:40:07;;;;;;;;;;;;;;;;;;10120058;28;20410;-63
2021/06/20 02:45:05;;;;;;;;;;;;;;;;;;10119696;28;19969;-66
2021/06/20 02:50:03;;;;;;;;;;;;;;;;;;10118843;28;20137;-63
2021/06/20 02:55:02;;;;;;;;;;;;;;;;;;10119342;28;19921;-63
2021/06/20 03:00:01;;;;;;;;;;;;;;;;;;10119457;28;19929;-63
2021/06/20 03:04:59;;;;;;;;;;;;;;;;;;10118170;28;19980;-62
2021/06/20 03:09:57;;;;;;;;;;;;;;;;;;10119185;28;19922;-63
2021/06/20 03:14:55;;;;;;;;;;;;;;;;;;10119820;28;19926;-62
2021/06/20 03:19:53;;;;;;;;;;;;;;;;;;10118039;28;20363;-63
2021/06/20 03:24:51;;;;;;;;;;;;;;;;;;10118534;28;19922;-63
2021/06/20 03:29:49;;;;;;;;;;;;;;;;;;10117924;28;19965;-63
2021/06/20 03:34:47;;;;;;;;;;;;;;;;;;10117661;28;19961;-63
2021/06/20 03:39:45;;;;;;;;;;;;;;;;;;10117394;28;19925;-63
2021/06/20 03:44:43;;;;;;;;;;;;;;;;;;10117355;28;19983;-63
2021/06/20 03:49:42;;;;;;;;;;;;;;;;;;10117384;28;19957;-63
2021/06/20 03:54:40;;;;;;;;;;;;;;;;;;10117452;28;19929;-63
2021/06/20 03:59:38;;;;;;;;;;;;;;;;;;10115906;28;19969;-60
2021/06/20 04:04:39;;;;;;;;;;;;;;;;;;10116744;28;19969;-60
2021/06/20 04:09:37;;;;;;;;;;;;;;;;;;10116926;28;19968;-60
2021/06/20 04:14:35;;;;;;;;;;;;;;;;;;10116719;28;19961;-60
2021/06/20 04:19:33;;;;;;;;;;;;;;;;;;10115989;28;19929;-60
2021/06/20 04:24:31;;;;;;;;;;;;;;;;;;10116785;28;19958;-60
2021/06/20 04:29:29;;;;;;;;;;;;;;;;;;10116473;28;20507;-60
2021/06/20 04:34:27;;;;;;;;;;;;;;;;;;10116245;28;19922;-60
2021/06/20 04:39:27;;;;;;;;;;;;;;;;;;10115845;28;19961;-60
2021/06/20 04:44:43;;;;;;;;;;;;;;;;;;10115583;28;20413;-61
2021/06/20 04:49:41;;;;;;;;;;;;;;;;;;10114972;28;19976;-60
2021/06/20 04:54:49;;;;;;;;;;;;;;;;;;10115783;28;19922;-60
2021/06/20 04:59:47;;;;;;;;;;;;;;;;;;10115663;28;19922;-60
2021/06/20 05:04:45;;;;;;;;;;;;;;;;;;10115088;28;20335;-60
2021/06/20 05:09:43;;;;;;;;;;;;;;;;;;10119899;28;19961;-60
2021/06/20 05:14:42;;;;;;;;;;;;;;;;;;10122839;28;19953;-59
2021/06/20 05:19:40;;;;;;;;;;;;;;;;;;10122399;28;19929;-60
2021/06/20 05:24:38;;;;;;;;;;;;;;;;;;10122843;28;20299;-60
2021/06/20 05:29:36;;;;;;;;;;;;;;;;;;10122323;28;20400;-60
2021/06/20 05:34:34;;;;;;;;;;;;;;;;;;10104134;28;19926;-60
2021/06/20 05:39:32;;;;;;;;;;;;;;;;;;10121938;28;19922;-60
2021/06/20 05:44:30;;;;;;;;;;;;;;;;;;10121470;28;20295;-60
2021/06/20 05:49:28;;;;;;;;;;;;;;;;;;10120501;28;19969;-60
2021/06/20 05:54:26;;;;;;;;;;;;;;;;;;10121359;28;19957;-60
2021/06/20 05:59:24;;;;;;;;;;;;;;;;;;10120834;28;19929;-59
2021/06/20 06:04:24;;;;;;;;;;;;;;;;;;10121043;28;20317;-60
2021/06/20 06:09:22;;;;;;;;;;;;;;;;;;10120858;28;20362;-60
2021/06/20 06:14:19;;;;;;;;;;;;;;;;;;10120628;28;19969;-60
2021/06/20 06:19:19;;;;;;;;;;;;;;;;;;10118560;28;19962;-60
2021/06/20 06:24:17;;;;;;;;;;;;;;;;;;10119916;28;19953;-60
2021/06/20 06:29:15;;;;;;;;;;;;;;;;;;10119550;28;19957;-60
2021/06/20 06:34:13;;;;;;;;;;;;;;;;;;10119518;28;20417;-60
2021/06/20 06:39:11;;;;;;;;;;;;;;;;;;10119616;28;19922;-60
2021/06/20 06:44:09;;;;;;;;;;;;;;;;;;10118810;28;20307;-60
2021/06/20 06:49:07;;;;;;;;;;;;;;;;;;10118208;28;19958;-60
2021/06/20 06:54:05;;;;;;;;;;;;;;;;;;10118322;28;19922;-60
2021/06/20 06:59:03;;;;;;;;;;;;;;;;;;10118822;28;19922;-60
2021/06/20 07:04:01;;;;;;;;;;;;;;;;;;10118482;28;19922;-59
2021/06/20 07:08:59;;;;;;;;;;;;;;;;;;10118317;28;19972;-60
2021/06/20 07:13:57;;;;;;;;;;;;;;;;;;10090920;28;20396;-60
2021/06/20 07:18:55;;;;;;;;;;;;;;;;;;10098399;28;19965;-59
2021/06/20 07:23:53;;;;;;;;;;;;;;;;;;10095544;28;19968;-59
2021/06/20 07:28:52;;;;;;;;;;;;;;;;;;10088322;28;19957;-59
2021/06/20 07:33:50;;;;;;;;;;;;;;;;;;10074644;28;19951;-60
2021/06/20 07:38:48;;;;;;;;;;;;;;;;;;10084732;28;20356;-60
2021/06/20 07:43:46;;;;;;;;;;;;;;;;;;10098530;28;19953;-60
2021/06/20 07:48:44;;;;;;;;;;;;;;;;;;10095840;28;19968;-59
2021/06/20 07:53:42;;;;;;;;;;;;;;;;;;10100156;28;19980;-59
2021/06/20 07:58:40;;;;;;;;;;;;;;;;;;10111877;28;20157;-60
2021/06/20 08:03:38;;;;;;;;;;;;;;;;;;10111968;28;19957;-59
2021/06/20 08:08:36;;;;;;;;;;;;;;;;;;10113690;28;20372;-60
2021/06/20 08:13:34;;;;;;;;;;;;;;;;;;10115805;28;19965;-59
2021/06/20 08:18:32;;;;;;;;;;;;;;;;;;10098539;28;20339;-59
2021/06/20 08:23:30;;;;;;;;;;;;;;;;;;10115197;28;19922;-59
2021/06/20 08:28:28;;;;;;;;;;;;;;;;;;10115166;28;19996;-59
2021/06/20 08:33:26;;;;;;;;;;;;;;;;;;10115095;28;20362;-59
2021/06/20 08:38:24;;;;;;;;;;;;;;;;;;10115526;28;19929;-59
2021/06/20 08:43:22;;;;;;;;;;;;;;;;;;10117536;28;19929;-59
2021/06/20 09:33:01;;;;;;;5.35;3.55;;;;;;;0.01;0.00;59042.03;10390925;27;106026;-58
2021/06/20 09:38:00;;;;;;;3.67;3.22;;;;;;;0.01;0.00;59042.03;10391957;28;20047;-54
2021/06/20 09:42:59;;;;;;;3.80;3.50;;;;;;;0.01;0.00;59042.03;10392302;28;20481;-58
2021/06/20 09:47:59;;;;;;;4.25;3.80;;;;;;;0.01;0.00;59042.03;10391315;28;20405;-58
2021/06/20 09:53:00;;;;;;;6.40;3.88;;;;;;;0.01;0.00;59042.03;10391965;28;20043;-57
2021/06/20 09:58:01;;;;;;;6.28;5.18;;;;;;;0.01;0.00;59042.03;10391685;28;20497;-58
2021/06/20 10:03:01;;;;;;;4.38;3.97;;;;;;;0.01;0.00;59042.03;10390422;28;20473;-58
2021/06/20 10:08:02;;;;;;;4.88;4.05;;;;;;;0.01;0.00;59042.03;10391235;28;20048;-58
2021/06/20 10:13:01;;;;;;;3.97;3.50;;;;;;;0.01;0.00;59042.03;10391235;28;20043;-58
2021/06/20 10:18:02;;;;;;;3.10;2.90;;;;;;;0.01;0.00;59042.03;10372149;28;20048;-58
2021/06/20 10:23:02;;;;;;;6.95;3.72;;;;;;;0.01;0.00;59042.03;10390187;28;20043;-59
2021/06/20 10:28:07;;;;;;;3.70;3.40;;;;;;;0.01;0.00;59042.03;10371706;28;20055;-58
2021/06/20 10:33:11;;;;;;;5.68;4.05;;;;;;;0.01;0.00;59042.03;10367280;28;20056;-58
2021/06/20 10:38:32;;;;;;;5.10;4.63;;;;;;;0.01;0.00;59042.03;10362657;28;20048;-58
2021/06/20 10:43:30;;;;;;;5.07;4.65;;;;;;;0.01;0.00;59042.03;10362676;28;20044;-58
2021/06/20 10:48:35;;;;;;;4.15;3.63;;;;;;;0.01;0.00;59042.03;10360952;28;20076;-58
2021/06/20 10:53:42;;;;;;;6.93;5.60;;;;;;;0.01;0.00;59042.03;10343510;28;20071;-58
2021/06/20 10:58:48;;;;;;;6.95;6.18;;;;;;;0.01;0.00;59042.03;10360913;28;20401;-53
2021/06/20 11:04:01;;;;;;;7.78;5.65;;;;;;;0.01;0.00;59042.03;10358937;28;20052;-48
2021/06/20 11:09:03;;;;;;;5.95;5.35;;;;;;;0.01;0.00;59042.03;10353687;28;20333;-54
2021/06/20 11:14:04;;;;;;;8.60;7.05;;;;;;;0.01;0.00;59042.03;10354050;28;20079;-52
2021/06/20 11:19:13;;;;;;;12.43;10.52;;;;;;;0.01;0.00;59042.03;10356589;28;20080;-52
2021/06/20 11:24:15;;;;;;;5.82;5.10;;;;;;;0.01;0.00;59042.03;10359519;28;20067;-50
2021/06/20 11:29:14;;;;;;;5.32;4.82;;;;;;;0.01;0.00;59042.03;10350606;28;20092;-50
2021/06/20 11:34:14;;;;;;;6.30;5.70;;;;;;;0.01;0.00;59042.03;10319063;28;20068;-54
2021/06/20 11:39:15;;;;;;;6.50;5.00;;;;;;;0.01;0.00;59042.03;10318500;28;20394;-53
2021/06/20 11:44:15;;;;;;;5.68;5.03;;;;;;;0.01;0.00;59042.03;10318173;28;20121;-53
2021/06/20 11:49:17;;;;;;;12.88;10.13;;;;;;;0.01;0.00;59042.03;10319070;28;20083;-51
2021/06/20 11:54:25;;;;;;;5.15;4.65;;;;;;;0.01;0.00;59042.03;10317980;28;20044;-53
2021/06/20 11:59:35;;;;;;;5.53;5.00;;;;;;;0.01;0.00;59042.03;10317735;28;20084;-54
2021/06/20 12:04:36;;;;;;;5.10;4.60;;;;;;;0.01;0.00;59042.03;10318295;28;20146;-55
2021/06/20 12:09:35;;;;;;;6.40;5.68;;;;;;;0.01;0.00;59042.03;10317293;28;20102;-54
2021/06/20 12:14:34;;;;;;;9.45;7.68;;;;;;;0.01;0.00;59042.03;10317490;28;20067;-54
2021/06/20 12:19:37;;;;;;;5.07;4.68;;;;;;;0.01;0.00;59042.03;10317465;28;20481;-53
2021/06/20 12:24:37;;;;;;;4.65;4.25;;;;;;;0.01;0.00;59042.03;10316713;28;20080;-52
2021/06/20 12:29:37;;;;;;;6.90;4.75;;;;;;;0.01;0.00;59042.03;10317254;28;20092;-53
2021/06/20 12:34:46;;;;;;;5.63;4.35;;;;;;;0.01;0.00;59042.03;10316460;28;20510;-53
2021/06/20 12:39:48;;;;;;;5.95;4.90;;;;;;;0.01;0.00;59042.03;10316420;28;20052;-50
2021/06/20 12:44:50;;;;;;;5.03;4.63;;;;;;;0.01;0.00;59042.03;10316826;28;20044;-52
2021/06/20 12:49:52;;;;;;;5.05;4.35;;;;;;;0.01;0.00;59042.03;10316518;28;20477;-53
2021/06/20 12:54:53;;;;;;;6.13;4.43;;;;;;;0.01;0.00;59042.03;10315669;28;20539;-55
2021/06/20 12:59:54;;;;;;;5.18;4.20;;;;;;;0.01;0.00;59042.03;10316668;28;20052;-51
2021/06/20 13:04:55;;;;;;;4.75;4.20;;;;;;;0.01;0.00;59042.03;10316682;28;20044;-52
2021/06/20 13:09:53;;;;;;;4.88;4.05;;;;;;;0.01;0.00;59042.03;10316315;28;20079;-55
2021/06/20 13:14:52;;;;;;;10.10;4.95;;;;;;;0.01;0.00;59042.03;10315523;28;20060;-53
2021/06/20 13:19:51;;;;;;;5.65;5.13;;;;;;;0.01;0.00;59042.03;10316151;28;20041;-54
2021/06/20 13:24:53;;;;;;;6.22;5.63;;;;;;;0.01;0.00;59042.03;10315591;28;20072;-51
2021/06/20 13:29:51;;;;;;;5.38;4.18;;;;;;;0.01;0.00;59042.03;10315063;28;20515;-54
2021/06/20 13:34:50;;;;;;;4.47;4.07;;;;;;;0.01;0.00;59042.03;10315482;28;20075;-52
2021/06/20 13:39:49;;;;;;;5.03;4.38;;;;;;;0.01;0.00;59042.03;10315842;28;20051;-53
2021/06/20 13:44:49;;;;;;;5.15;4.47;;;;;;;0.01;0.00;59042.03;10315248;28;20076;-55
2021/06/20 13:49:48;;;;;;;3.92;3.63;;;;;;;0.01;0.00;59042.03;10314949;28;20088;-55
2021/06/20 13:54:52;;;;;;;4.10;3.78;;;;;;;0.01;0.00;59042.03;10315807;28;20052;-53
2021/06/20 13:59:52;;;;;;;5.75;5.25;;;;;;;0.01;0.00;59042.03;10314672;28;20081;-53
2021/06/20 14:04:51;;;;;;;4.32;3.33;;;;;;;0.01;0.00;59042.03;10314538;28;20079;-52
2021/06/20 14:09:50;;;;;;;4.70;4.30;;;;;;;0.01;0.00;59042.03;10322793;28;20040;-54
2021/06/20 14:14:49;;;;;;;4.03;3.72;;;;;;;0.01;0.00;59042.03;10322638;28;20040;-54
2021/06/20 14:19:49;;;;;;;4.90;4.50;;;;;;;0.01;0.00;59042.03;10322005;28;20494;-52
2021/06/20 14:24:48;;;;;;;4.75;4.32;;;;;;;0.01;0.00;59042.03;10322233;28;20059;-59
2021/06/20 14:29:46;;;;;;;5.93;4.63;;;;;;;0.01;0.00;59042.03;10321020;28;20501;-58
2021/06/20 14:34:45;;;;;;;5.18;4.68;;;;;;;0.01;0.00;59042.03;10321148;28;20086;-58
2021/06/20 14:39:45;;;;;;;5.30;4.80;;;;;;;0.01;0.00;59042.03;10321369;28;20540;-58
2021/06/20 14:44:44;;;;;;;8.45;4.95;;;;;;;0.01;0.00;59042.03;10320734;28;20510;-58
2021/06/20 14:49:43;;;;;;;6.90;6.20;;;;;;;0.01;0.00;59042.03;10321249;28;20048;-58
2021/06/20 14:54:42;;;;;;;8.52;7.45;;;;;;;0.01;0.00;59042.03;10302506;28;20044;-59
2021/06/20 14:59:42;;;;;;;10.80;9.27;;;;;;;0.01;0.00;59042.03;10320910;28;20044;-58
2021/06/20 15:04:40;;;;;;;9.88;8.73;;;;;;;0.01;0.00;59042.03;10320471;28;20418;-58
2021/06/20 15:09:39;;;;;;;7.88;6.03;;;;;;;0.01;0.00;59042.03;10320235;28;20122;-59
2021/06/20 15:14:38;;;;;;;9.05;5.93;;;;;;;0.01;0.00;59042.03;10320243;28;20075;-57
2021/06/20 15:19:38;;;;;;;7.13;6.43;;;;;;;0.01;0.00;59042.03;10319971;28;20080;-57
2021/06/20 15:24:37;;;;;;;9.40;8.05;;;;;;;0.01;0.00;59042.03;10319597;28;20075;-58
2021/06/20 15:29:36;;;;;;;10.10;7.68;;;;;;;0.01;0.00;59042.03;10300942;28;20060;-58
2021/06/20 15:34:35;;;;;;;9.40;8.60;;;;;;;0.01;0.00;59042.03;10319505;28;20076;-58
2021/06/20 15:39:35;;;;;;;7.03;6.10;;;;;;;0.01;0.00;59042.03;10319562;28;20044;-58
2021/06/20 15:44:34;;;;;;;10.20;9.18;;;;;;;0.01;0.00;59042.03;10317997;28;20056;-58
2021/06/20 15:49:34;;;;;;;16.33;8.38;;;;;;;0.01;0.00;59042.03;10318933;28;20379;-59
2021/06/20 15:54:34;;;;;;;28.02;25.45;;;;;;;0.01;0.00;59042.03;10318981;28;20079;-59
2021/06/20 15:59:33;;;;;;;47.63;42.80;;;;;;;0.01;0.00;59042.03;10317725;28;20044;-59
2021/06/20 16:04:32;;;;;;;28.27;25.83;;;;;;;0.01;0.00;59042.03;10317675;28;20044;-59
2021/06/20 16:09:31;;;;;;;16.77;15.00;;;;;;;0.01;0.00;59042.03;10317493;28;20067;-59
2021/06/20 16:14:32;;;;;;;11.35;10.05;;;;;;;0.01;0.00;59042.03;10316993;28;20075;-59
2021/06/20 16:19:30;;;;;;;15.63;12.63;;;;;;;0.01;0.00;59042.03;10317871;28;20048;-59
2021/06/20 16:24:32;;;;;;;11.13;10.13;;;;;;;0.01;0.00;59042.03;10316938;28;20051;-59
2021/06/20 16:29:32;;;;;;;14.65;9.50;;;;;;;0.01;0.00;59042.03;10316622;28;20067;-59
2021/06/20 16:34:31;;;;;;;14.82;9.80;;;;;;;0.01;0.00;59042.03;10317234;28;20075;-59
2021/06/20 16:39:29;;;;;;;13.55;10.18;;;;;;;0.01;0.00;59042.03;10317222;28;20041;-59
2021/06/20 16:44:28;;;;;;;10.48;9.38;;;;;;;0.01;0.00;59042.03;10316358;28;20041;-59
2021/06/20 16:49:28;;;;;;;11.02;8.32;;;;;;;0.01;0.00;59042.03;10316799;28;20045;-59
2021/06/20 16:54:27;;;;;;;10.02;9.00;;;;;;;0.01;0.00;59042.03;10317278;28;20067;-59
2021/06/20 16:59:26;;;;;;;12.10;8.27;;;;;;;0.01;0.00;59042.03;10316483;28;20048;-58
2021/06/20 17:04:24;;;;;;;8.40;7.60;;;;;;;0.01;0.00;59042.03;10316455;28;20053;-58
2021/06/20 17:09:25;;;;;;;12.18;6.95;;;;;;;0.01;0.00;59042.03;10316342;28;20090;-58
2021/06/20 17:14:23;;;;;;;9.05;6.65;;;;;;;0.01;0.00;59042.03;10315734;28;20076;-58
2021/06/20 17:19:22;;;;;;;8.20;5.82;;;;;;;0.01;0.00;59042.03;10316546;28;20045;-59
2021/06/20 17:24:21;;;;;;;9.73;6.35;;;;;;;0.01;0.00;59042.03;10316295;28;20052;-59
2021/06/20 17:29:21;;;;;;;10.35;6.30;;;;;;;0.01;0.00;59042.03;10315831;28;20485;-59
2021/06/20 17:34:20;;;;;;;8.38;6.53;;;;;;;0.01;0.00;59042.03;10316222;28;20076;-59
2021/06/20 17:39:18;;;;;;;6.95;6.28;;;;;;;0.01;0.00;59042.03;10315199;28;20509;-58
2021/06/20 17:44:17;;;;;;;8.10;6.70;;;;;;;0.01;0.00;59042.03;10323639;28;20075;-58
2021/06/20 17:49:17;;;;;;;9.63;6.55;;;;;;;0.01;0.00;59042.03;10323704;28;20053;-58
2021/06/20 17:54:16;;;;;;;8.27;6.10;;;;;;;0.01;0.00;59042.03;10323862;28;20083;-59
2021/06/20 17:59:15;;;;;;;7.50;6.82;;;;;;;0.01;0.00;59042.03;10323251;28;20040;-58
2021/06/20 18:04:13;;;;;;;8.43;7.63;;;;;;;0.01;0.00;59042.03;10322758;28;20076;-58
2021/06/20 18:09:14;;;;;;;9.43;8.43;;;;;;;0.01;0.00;59042.03;10322664;28;20438;-58
2021/06/20 18:14:12;;;;;;;11.98;7.05;;;;;;;0.01;0.00;59042.03;10321577;28;20528;-59
2021/06/20 18:19:11;;;;;;;11.00;8.23;;;;;;;0.01;0.00;59042.03;10304833;28;20431;-58
2021/06/20 18:24:11;;;;;;;8.27;6.93;;;;;;;0.01;0.00;59042.03;10322678;28;20413;-58
2021/06/20 18:29:12;;;;;;;14.10;11.10;;;;;;;0.01;0.00;59042.03;10322574;28;20498;-58
2021/06/20 18:34:10;;;;;;;13.13;10.73;;;;;;;0.01;0.00;59042.03;10321959;28;20518;-58
2021/06/20 18:39:10;;;;;;;9.82;8.90;;;;;;;0.01;0.00;59042.03;10322316;28;20083;-59
2021/06/20 18:44:09;;;;;;;7.55;6.75;;;;;;;0.01;0.00;59042.03;10321206;28;20543;-58
2021/06/20 18:49:09;;;;;;;9.95;6.45;;;;;;;0.01;0.00;59042.03;10321646;28;20040;-58
2021/06/20 18:54:08;;;;;;;7.70;6.45;;;;;;;0.01;0.00;59042.03;10321007;28;20458;-58
2021/06/20 18:59:06;;;;;;;9.93;5.32;;;;;;;0.01;0.00;59042.03;10321146;28;20082;-58
2021/06/20 19:04:05;;;;;;;8.07;5.25;;;;;;;0.01;0.00;59042.03;10321066;28;20084;-60
2021/06/20 19:09:05;;;;;;;16.38;5.70;;;;;;;0.01;0.00;59042.03;10320545;28;20075;-58
2021/06/20 19:14:05;;;;;;;6.55;5.95;;;;;;;0.01;0.00;59042.03;10320174;28;20087;-58
2021/06/20 19:19:03;;;;;;;7.45;5.70;;;;;;;0.01;0.00;59042.03;10302435;28;20053;-58
2021/06/20 19:24:02;;;;;;;10.68;6.28;;;;;;;0.01;0.00;59042.03;10320055;28;20048;-58
2021/06/20 19:29:03;;;;;;;7.50;5.55;;;;;;;0.01;0.00;59042.03;10320291;28;20085;-57
2021/06/20 19:34:01;;;;;;;6.15;5.65;;;;;;;0.01;0.00;59042.03;10319317;28;20049;-58
2021/06/20 19:39:00;;;;;;;6.65;5.05;;;;;;;0.01;0.00;59042.03;10319020;28;20052;-58
2021/06/20 19:43:59;;;;;;;6.47;5.47;;;;;;;0.01;0.00;59042.03;10318970;28;20568;-58
2021/06/20 19:49:00;;;;;;;8.82;5.00;;;;;;;0.01;0.00;59042.03;10318459;28;20063;-57
2021/06/20 19:54:00;;;;;;;7.18;5.70;;;;;;;0.01;0.00;59042.03;10318846;28;21084;-57
2021/06/20 19:58:59;;;;;;;10.40;5.97;;;;;;;0.01;0.00;59042.03;10300764;28;20520;-58
2021/06/20 20:03:59;;;;;;;10.55;5.55;;;;;;;0.01;0.00;59042.03;10317761;28;20052;-59
2021/06/20 20:08:58;;;;;;;7.32;5.53;;;;;;;0.01;0.00;59042.03;10318838;28;20051;-59
2021/06/20 20:13:57;;;;;;;9.48;6.40;;;;;;;0.01;0.00;59042.03;10318126;28;20079;-58
2021/06/20 20:18:56;;;;;;;8.57;5.68;;;;;;;0.01;0.00;59042.03;10318095;28;20215;-58
2021/06/20 20:23:57;;;;;;;6.80;6.10;;;;;;;0.01;0.00;59042.03;10317594;28;20052;-59
2021/06/20 20:28:55;;;;;;;10.35;5.82;;;;;;;0.01;0.00;59042.03;10316779;28;20060;-59
2021/06/20 20:33:54;;;;;;;8.80;5.80;;;;;;;0.01;0.00;59042.03;10317227;28;20079;-58
2021/06/20 20:38:53;;;;;;;7.35;5.20;;;;;;;0.01;0.00;59042.03;10316606;28;20048;-58
2021/06/20 20:43:54;;;;;;;13.07;5.68;;;;;;;0.01;0.00;59042.03;10316452;28;20051;-58
2021/06/20 20:48:53;;;;;;;11.80;5.30;;;;;;;0.01;0.00;59042.03;10317607;28;20497;-59
2021/06/20 20:53:52;;;;;;;6.05;5.50;;;;;;;0.01;0.00;59042.03;10316808;28;20169;-58
2021/06/20 20:58:51;;;;;;;5.47;4.97;;;;;;;0.01;0.00;59042.03;10316877;28;20040;-58
2021/06/20 21:03:51;;;;;;;9.73;5.40;;;;;;;0.01;0.00;59042.03;10316593;28;20454;-58
2021/06/20 21:08:49;;;;;;;5.00;4.47;;;;;;;0.01;0.00;59042.03;10315814;28;20565;-58
2021/06/20 21:13:49;;;;;;;8.07;5.65;;;;;;;0.01;0.00;59042.03;10315838;28;20068;-58
2021/06/20 21:18:48;;;;;;;6.30;5.70;;;;;;;0.01;0.00;59042.03;10315840;28;20075;-58
2021/06/20 21:23:48;;;;;;;7.18;5.18;;;;;;;0.01;0.00;59042.03;10315413;28;20512;-59
2021/06/20 21:28:47;;;;;;;8.63;5.07;;;;;;;0.01;0.00;59042.03;10315676;28;20079;-58
2021/06/20 21:33:47;;;;;;;6.00;5.43;;;;;;;0.01;0.00;59042.03;10316054;28;20509;-58
2021/06/20 21:38:50;;;;;;;8.55;5.47;;;;;;;0.01;0.00;59042.03;10315068;28;20597;-58
2021/06/20 21:43:49;;;;;;;8.48;5.75;;;;;;;0.01;0.00;59042.03;10315723;28;20040;-58
2021/06/20 21:48:48;;;;;;;8.05;5.20;;;;;;;0.01;0.00;59042.03;10315019;28;20497;-58
2021/06/20 21:53:51;;;;;;;5.65;5.07;;;;;;;0.01;0.00;59042.03;10315758;28;20052;-58
2021/06/20 21:58:50;;;;;;;13.60;5.28;;;;;;;0.01;0.00;59042.03;10316169;28;20405;-58
2021/06/20 22:03:49;;;;;;;6.50;5.90;;;;;;;0.01;0.00;59042.03;10315527;28;20406;-58
2021/06/20 22:08:48;;;;;;;6.05;4.72;;;;;;;0.01;0.00;59042.03;10314631;28;20651;-58
2021/06/20 22:13:48;;;;;;;7.88;4.78;;;;;;;0.01;0.00;59042.03;10315236;28;20501;-58
2021/06/20 22:18:47;;;;;;;11.73;5.43;;;;;;;0.01;0.00;59042.03;10314992;28;20045;-58
2021/06/20 22:23:46;;;;;;;9.30;6.20;;;;;;;0.01;0.00;59042.03;10314739;28;20036;-58
2021/06/20 22:28:45;;;;;;;9.20;5.72;;;;;;;0.01;0.00;59042.03;10319732;28;20315;-58
2021/06/20 22:33:45;;;;;;;9.40;5.70;;;;;;;0.01;0.00;59042.03;10322255;28;20476;-58
2021/06/20 22:38:44;;;;;;;9.18;5.70;;;;;;;0.01;0.00;59042.03;10321646;28;20044;-58
2021/06/20 22:43:42;;;;;;;11.93;6.15;;;;;;;0.01;0.00;59042.03;10321451;28;20041;-58
2021/06/20 22:48:41;;;;;;;6.05;5.28;;;;;;;0.01;0.00;59042.03;10322251;28;20044;-58
2021/06/20 22:53:41;;;;;;;15.13;6.20;;;;;;;0.01;0.00;59042.03;10321487;28;20532;-59
2021/06/20 22:58:40;;;;;;;7.72;5.43;;;;;;;0.01;0.00;59042.03;10321070;28;20060;-57
2021/06/20 23:03:39;;;;;;;8.38;5.95;;;;;;;0.01;0.00;59042.03;10321223;28;20041;-59
2021/06/20 23:08:38;;;;;;;9.57;5.85;;;;;;;0.01;0.00;59042.03;10321085;28;20499;-58
2021/06/20 23:13:38;;;;;;;9.15;5.07;;;;;;;0.01;0.00;59042.03;10320741;28;20075;-58
2021/06/20 23:18:37;;;;;;;13.20;6.47;;;;;;;0.01;0.00;59042.03;10320806;28;20051;-58
2021/06/20 23:23:35;;;;;;;12.52;5.63;;;;;;;0.01;0.00;59042.03;10320142;28;20091;-59
2021/06/20 23:28:34;;;;;;;5.93;4.85;;;;;;;0.01;0.00;59042.03;10320186;28;20052;-58
2021/06/20 23:33:34;;;;;;;11.50;5.10;;;;;;;0.01;0.00;59042.03;10319583;28;20072;-58
2021/06/20 23:38:33;;;;;;;8.93;4.80;;;;;;;0.01;0.00;59042.03;10319063;28;20047;-58
2021/06/20 23:43:32;;;;;;;9.45;4.88;;;;;;;0.01;0.00;59042.03;10301312;28;20046;-58
2021/06/20 23:48:31;;;;;;;9.45;5.38;;;;;;;0.01;0.00;59042.03;10318759;28;20045;-58
2021/06/20 23:53:31;;;;;;;11.02;5.45;;;;;;;0.01;0.00;59042.03;10319118;28;20048;-59
2021/06/20 23:58:30;;;;;;;8.50;4.57;;;;;;;0.01;0.00;59042.03;10318718;28;20052;-58
